sensor_id;sensor_type;location;lat;lon;timestamp;pressure;altitude;pressure_sealevel;temperature;humidity
44349;BME280;30068;50.986;4.564;2023-07-31T00:01:50;101239.41;;;25.38;54.89
44349;BME280;30068;50.986;4.564;2023-07-31T00:04:15;101245.91;;;25.37;54.61
44349;BME280;30068;50.986;4.564;2023-07-31T00:06:41;101244.88;;;25.38;54.52
44349;BME280;30068;50.986;4.564;2023-07-31T00:09:06;101241.50;;;25.36;54.79
44349;BME280;30068;50.986;4.564;2023-07-31T00:11:31;101235.19;;;25.36;54.91
44349;BME280;30068;50.986;4.564;2023-07-31T00:13:56;101245.28;;;25.35;54.84
44349;BME280;30068;50.986;4.564;2023-07-31T00:16:22;101235.19;;;25.36;54.32
44349;BME280;30068;50.986;4.564;2023-07-31T00:18:47;101229.94;;;25.34;54.38
44349;BME280;30068;50.986;4.564;2023-07-31T00:21:12;101227.22;;;25.34;54.71
44349;BME280;30068;50.986;4.564;2023-07-31T00:23:37;101227.22;;;25.34;54.25
44349;BME280;30068;50.986;4.564;2023-07-31T00:26:02;101216.28;;;25.34;54.46
44349;BME280;30068;50.986;4.564;2023-07-31T00:28:28;101216.28;;;25.34;54.88
44349;BME280;30068;50.986;4.564;2023-07-31T00:30:53;101217.31;;;25.33;54.51
44349;BME280;30068;50.986;4.564;2023-07-31T00:33:19;101214.59;;;25.33;54.68
44349;BME280;30068;50.986;4.564;2023-07-31T00:35:44;101217.31;;;25.33;54.70
44349;BME280;30068;50.986;4.564;2023-07-31T00:38:09;101214.59;;;25.33;54.27
44349;BME280;30068;50.986;4.564;2023-07-31T00:40:37;101217.31;;;25.33;54.87
44349;BME280;30068;50.986;4.564;2023-07-31T00:43:03;101213.75;;;25.33;54.74
44349;BME280;30068;50.986;4.564;2023-07-31T00:45:28;101209.97;;;25.34;54.52
44349;BME280;30068;50.986;4.564;2023-07-31T00:47:54;101211.03;;;25.33;54.72
44349;BME280;30068;50.986;4.564;2023-07-31T00:50:19;101212.91;;;25.32;54.80
44349;BME280;30068;50.986;4.564;2023-07-31T00:52:44;101212.91;;;25.32;54.65
44349;BME280;30068;50.986;4.564;2023-07-31T00:55:09;101210.19;;;25.32;54.59
44349;BME280;30068;50.986;4.564;2023-07-31T00:57:35;101199.50;;;25.31;54.79
44349;BME280;30068;50.986;4.564;2023-07-31T01:00:01;101209.34;;;25.32;54.34
44349;BME280;30068;50.986;4.564;2023-07-31T01:02:28;101210.41;;;25.31;54.55
44349;BME280;30068;50.986;4.564;2023-07-31T01:04:53;101201.38;;;25.30;54.81
44349;BME280;30068;50.986;4.564;2023-07-31T01:07:20;101205.78;;;25.31;54.32
44349;BME280;30068;50.986;4.564;2023-07-31T01:09:49;101199.50;;;25.31;54.65
44349;BME280;30068;50.986;4.564;2023-07-31T01:12:17;101197.81;;;25.30;54.88
44349;BME280;30068;50.986;4.564;2023-07-31T01:15:18;101188.75;;;25.29;54.73
44349;BME280;30068;50.986;4.564;2023-07-31T01:17:36;101189.59;;;25.30;54.63
44349;BME280;30068;50.986;4.564;2023-07-31T01:20:02;101180.56;;;25.29;54.46
44349;BME280;30068;50.986;4.564;2023-07-31T01:27:44;101175.09;;;25.29;54.60
44349;BME280;30068;50.986;4.564;2023-07-31T01:30:16;101177.19;;;25.27;54.97
44349;BME280;30068;50.986;4.564;2023-07-31T01:32:43;101188.13;;;25.27;54.95
44349;BME280;30068;50.986;4.564;2023-07-31T01:35:11;101185.41;;;25.27;54.49
44349;BME280;30068;50.986;4.564;2023-07-31T01:37:36;101181.81;;;25.27;54.60
44349;BME280;30068;50.986;4.564;2023-07-31T01:40:02;101178.25;;;25.26;54.74
44349;BME280;30068;50.986;4.564;2023-07-31T01:42:27;101175.53;;;25.26;55.08
44349;BME280;30068;50.986;4.564;2023-07-31T01:44:52;101172.78;;;25.26;55.09
44349;BME280;30068;50.986;4.564;2023-07-31T01:47:18;101170.06;;;25.26;55.00
44349;BME280;30068;50.986;4.564;2023-07-31T01:49:43;101161.25;;;25.24;55.07
44349;BME280;30068;50.986;4.564;2023-07-31T01:52:08;101163.75;;;25.26;54.70
44349;BME280;30068;50.986;4.564;2023-07-31T01:54:33;101162.91;;;25.25;54.71
44349;BME280;30068;50.986;4.564;2023-07-31T01:56:59;101158.28;;;25.26;54.71
44349;BME280;30068;50.986;4.564;2023-07-31T01:59:24;101158.53;;;25.24;54.92
44349;BME280;30068;50.986;4.564;2023-07-31T02:01:49;101157.69;;;25.24;55.03
44349;BME280;30068;50.986;4.564;2023-07-31T02:04:14;101151.97;;;25.25;54.86
44349;BME280;30068;50.986;4.564;2023-07-31T02:06:39;101137.72;;;25.23;54.95
44349;BME280;30068;50.986;4.564;2023-07-31T02:09:05;101137.72;;;25.23;55.15
44349;BME280;30068;50.986;4.564;2023-07-31T02:11:30;101136.88;;;25.23;54.63
44349;BME280;30068;50.986;4.564;2023-07-31T02:13:55;101136.03;;;25.22;55.23
44349;BME280;30068;50.986;4.564;2023-07-31T02:16:20;101135.19;;;25.22;54.90
44349;BME280;30068;50.986;4.564;2023-07-31T02:18:46;101124.28;;;25.22;54.57
44349;BME280;30068;50.986;4.564;2023-07-31T02:21:11;101116.91;;;25.22;54.90
44349;BME280;30068;50.986;4.564;2023-07-31T02:23:36;101111.47;;;25.22;55.07
44349;BME280;30068;50.986;4.564;2023-07-31T02:26:01;101115.25;;;25.21;54.72
44349;BME280;30068;50.986;4.564;2023-07-31T02:28:26;101117.13;;;25.21;54.75
44349;BME280;30068;50.986;4.564;2023-07-31T02:30:52;101114.41;;;25.21;54.82
44349;BME280;30068;50.986;4.564;2023-07-31T02:33:17;101111.66;;;25.21;54.81
44349;BME280;30068;50.986;4.564;2023-07-31T02:35:42;101105.38;;;25.20;54.79
44349;BME280;30068;50.986;4.564;2023-07-31T02:38:07;101106.19;;;25.21;54.99
44349;BME280;30068;50.986;4.564;2023-07-31T02:40:33;101099.91;;;25.20;55.07
44349;BME280;30068;50.986;4.564;2023-07-31T02:42:58;101090.03;;;25.19;54.96
44349;BME280;30068;50.986;4.564;2023-07-31T02:45:23;101090.03;;;25.19;55.25
44349;BME280;30068;50.986;4.564;2023-07-31T02:47:48;101084.56;;;25.19;55.16
44349;BME280;30068;50.986;4.564;2023-07-31T02:50:13;101086.44;;;25.18;55.17
44349;BME280;30068;50.986;4.564;2023-07-31T02:52:39;101087.28;;;25.19;54.98
44349;BME280;30068;50.986;4.564;2023-07-31T02:55:04;101080.97;;;25.18;54.87
44349;BME280;30068;50.986;4.564;2023-07-31T02:57:29;101066.47;;;25.18;54.66
44349;BME280;30068;50.986;4.564;2023-07-31T02:59:54;101069.22;;;25.18;54.92
44349;BME280;30068;50.986;4.564;2023-07-31T03:02:19;101074.69;;;25.18;54.94
44349;BME280;30068;50.986;4.564;2023-07-31T03:04:45;101077.66;;;25.16;55.17
44349;BME280;30068;50.986;4.564;2023-07-31T03:07:10;101072.19;;;25.16;55.15
44349;BME280;30068;50.986;4.564;2023-07-31T03:09:35;101065.88;;;25.16;54.89
44349;BME280;30068;50.986;4.564;2023-07-31T03:12:00;101070.50;;;25.15;54.93
44349;BME280;30068;50.986;4.564;2023-07-31T03:14:26;101069.66;;;25.15;55.24
44349;BME280;30068;50.986;4.564;2023-07-31T03:16:51;101066.94;;;25.15;54.96
44349;BME280;30068;50.986;4.564;2023-07-31T03:19:17;101064.22;;;25.15;55.40
44349;BME280;30068;50.986;4.564;2023-07-31T03:21:42;101059.59;;;25.15;54.85
44349;BME280;30068;50.986;4.564;2023-07-31T03:24:07;101057.06;;;25.14;55.25
44349;BME280;30068;50.986;4.564;2023-07-31T03:26:32;101061.47;;;25.15;54.88
44349;BME280;30068;50.986;4.564;2023-07-31T03:28:58;101057.06;;;25.14;55.35
44349;BME280;30068;50.986;4.564;2023-07-31T03:31:23;101049.06;;;25.12;55.32
44349;BME280;30068;50.986;4.564;2023-07-31T03:33:48;101060.84;;;25.13;54.90
44349;BME280;30068;50.986;4.564;2023-07-31T03:36:13;101055.38;;;25.13;55.13
44349;BME280;30068;50.986;4.564;2023-07-31T03:38:39;101053.69;;;25.12;55.45
44349;BME280;30068;50.986;4.564;2023-07-31T03:41:04;101055.38;;;25.13;55.30
44349;BME280;30068;50.986;4.564;2023-07-31T03:43:31;101043.84;;;25.11;55.50
44349;BME280;30068;50.986;4.564;2023-07-31T03:45:56;101041.94;;;25.11;55.44
44349;BME280;30068;50.986;4.564;2023-07-31T03:48:21;101046.59;;;25.11;55.26
44349;BME280;30068;50.986;4.564;2023-07-31T03:50:47;101044.91;;;25.10;54.91
44349;BME280;30068;50.986;4.564;2023-07-31T03:53:12;101046.59;;;25.11;55.34
44349;BME280;30068;50.986;4.564;2023-07-31T03:55:37;101041.13;;;25.11;55.08
44349;BME280;30068;50.986;4.564;2023-07-31T03:58:02;101030.41;;;25.09;55.34
44349;BME280;30068;50.986;4.564;2023-07-31T04:00:28;101028.53;;;25.10;55.43
44349;BME280;30068;50.986;4.564;2023-07-31T04:02:53;101031.47;;;25.08;55.22
44349;BME280;30068;50.986;4.564;2023-07-31T04:05:18;101022.44;;;25.08;55.45
44349;BME280;30068;50.986;4.564;2023-07-31T04:07:43;101027.88;;;25.08;55.10
44349;BME280;30068;50.986;4.564;2023-07-31T04:10:09;101022.44;;;25.08;55.57
44349;BME280;30068;50.986;4.564;2023-07-31T04:12:34;101016.13;;;25.07;55.09
44349;BME280;30068;50.986;4.564;2023-07-31T04:14:59;101001.63;;;25.07;55.11
44349;BME280;30068;50.986;4.564;2023-07-31T04:17:25;101004.34;;;25.07;55.21
44349;BME280;30068;50.986;4.564;2023-07-31T04:19:50;101001.63;;;25.07;55.27
44349;BME280;30068;50.986;4.564;2023-07-31T04:22:15;100985.25;;;25.07;55.70
44349;BME280;30068;50.986;4.564;2023-07-31T04:24:40;100990.72;;;25.07;55.63
44349;BME280;30068;50.986;4.564;2023-07-31T04:27:06;100983.56;;;25.06;55.67
44349;BME280;30068;50.986;4.564;2023-07-31T04:29:31;100985.47;;;25.05;55.65
44349;BME280;30068;50.986;4.564;2023-07-31T04:31:56;100994.69;;;25.04;55.83
44349;BME280;30068;50.986;4.564;2023-07-31T04:34:21;100990.06;;;25.05;55.73
44349;BME280;30068;50.986;4.564;2023-07-31T04:36:46;100997.66;;;25.03;55.65
44349;BME280;30068;50.986;4.564;2023-07-31T04:39:12;100980.22;;;25.04;55.58
44349;BME280;30068;50.986;4.564;2023-07-31T04:41:37;100973.09;;;25.03;55.80
44349;BME280;30068;50.986;4.564;2023-07-31T04:44:02;100975.00;;;25.02;55.40
44349;BME280;30068;50.986;4.564;2023-07-31T04:46:29;100985.91;;;25.02;55.78
44349;BME280;30068;50.986;4.564;2023-07-31T04:48:54;100982.34;;;25.02;55.32
44349;BME280;30068;50.986;4.564;2023-07-31T04:51:19;100973.31;;;25.01;55.72
44349;BME280;30068;50.986;4.564;2023-07-31T04:53:46;100974.34;;;25.00;55.44
44349;BME280;30068;50.986;4.564;2023-07-31T04:56:11;100984.44;;;25.00;55.46
44349;BME280;30068;50.986;4.564;2023-07-31T04:58:36;100977.28;;;24.99;55.75
44349;BME280;30068;50.986;4.564;2023-07-31T05:01:02;100983.59;;;24.99;55.58
44349;BME280;30068;50.986;4.564;2023-07-31T05:03:27;100973.50;;;25.00;55.95
44349;BME280;30068;50.986;4.564;2023-07-31T05:05:52;100978.34;;;24.98;55.48
44349;BME280;30068;50.986;4.564;2023-07-31T05:08:17;100967.22;;;24.99;55.88
44349;BME280;30068;50.986;4.564;2023-07-31T05:10:43;100963.88;;;24.97;55.44
44349;BME280;30068;50.986;4.564;2023-07-31T05:13:08;100963.03;;;24.97;55.76
44349;BME280;30068;50.986;4.564;2023-07-31T05:15:33;100957.78;;;24.95;56.04
44349;BME280;30068;50.986;4.564;2023-07-31T05:17:58;100950.44;;;24.96;55.59
44349;BME280;30068;50.986;4.564;2023-07-31T05:20:23;100954.22;;;24.95;55.59
44349;BME280;30068;50.986;4.564;2023-07-31T05:22:49;100965.16;;;24.95;55.33
44349;BME280;30068;50.986;4.564;2023-07-31T05:25:15;100956.94;;;24.95;55.81
44349;BME280;30068;50.986;4.564;2023-07-31T05:27:40;100951.69;;;24.93;55.95
44349;BME280;30068;50.986;4.564;2023-07-31T05:30:06;100950.88;;;24.93;56.00
44349;BME280;30068;50.986;4.564;2023-07-31T05:32:31;100945.41;;;24.93;55.89
44349;BME280;30068;50.986;4.564;2023-07-31T05:34:57;100938.25;;;24.92;55.90
44349;BME280;30068;50.986;4.564;2023-07-31T05:37:22;100935.78;;;24.90;55.97
44349;BME280;30068;50.986;4.564;2023-07-31T05:39:47;100939.53;;;24.89;56.27
44349;BME280;30068;50.986;4.564;2023-07-31T05:42:13;100942.47;;;24.88;56.17
44349;BME280;30068;50.986;4.564;2023-07-31T05:44:38;100947.09;;;24.87;56.24
44349;BME280;30068;50.986;4.564;2023-07-31T05:47:03;100950.66;;;24.88;56.26
44349;BME280;30068;50.986;4.564;2023-07-31T05:49:29;100949.59;;;24.89;56.59
44349;BME280;30068;50.986;4.564;2023-07-31T05:51:54;100944.97;;;24.89;56.57
44349;BME280;30068;50.986;4.564;2023-07-31T05:54:20;100945.41;;;24.93;56.63
44349;BME280;30068;50.986;4.564;2023-07-31T05:56:45;100943.31;;;24.95;56.07
44349;BME280;30068;50.986;4.564;2023-07-31T05:59:12;100940.38;;;24.96;56.44
44349;BME280;30068;50.986;4.564;2023-07-31T06:01:37;100932.56;;;25.00;55.91
44349;BME280;30068;50.986;4.564;2023-07-31T06:04:02;100937.59;;;25.03;56.46
44349;BME280;30068;50.986;4.564;2023-07-31T06:06:28;100928.34;;;25.04;56.40
44349;BME280;30068;50.986;4.564;2023-07-31T06:08:53;100927.28;;;25.05;56.45
44349;BME280;30068;50.986;4.564;2023-07-31T06:11:19;100928.94;;;25.06;56.20
44349;BME280;30068;50.986;4.564;2023-07-31T06:13:44;100926.00;;;25.07;56.32
44349;BME280;30068;50.986;4.564;2023-07-31T06:16:11;100935.88;;;25.08;55.99
44349;BME280;30068;50.986;4.564;2023-07-31T06:18:37;100938.41;;;25.10;55.67
44349;BME280;30068;50.986;4.564;2023-07-31T06:21:02;100940.06;;;25.11;56.08
44349;BME280;30068;50.986;4.564;2023-07-31T06:23:27;100937.09;;;25.12;55.83
44349;BME280;30068;50.986;4.564;2023-07-31T06:25:53;100935.41;;;25.11;55.61
44349;BME280;30068;50.986;4.564;2023-07-31T06:28:18;100928.91;;;25.12;56.28
44349;BME280;30068;50.986;4.564;2023-07-31T06:30:43;100932.47;;;25.13;55.59
44349;BME280;30068;50.986;4.564;2023-07-31T06:33:08;100928.69;;;25.14;56.17
44349;BME280;30068;50.986;4.564;2023-07-31T06:35:34;100927.66;;;25.15;55.50
44349;BME280;30068;50.986;4.564;2023-07-31T06:37:59;100932.06;;;25.16;56.05
44349;BME280;30068;50.986;4.564;2023-07-31T06:40:24;100918.41;;;25.16;55.57
44349;BME280;30068;50.986;4.564;2023-07-31T06:42:50;100918.41;;;25.16;55.48
44349;BME280;30068;50.986;4.564;2023-07-31T06:45:15;100903.91;;;25.15;55.48
44349;BME280;30068;50.986;4.564;2023-07-31T06:47:40;100913.78;;;25.16;56.00
44349;BME280;30068;50.986;4.564;2023-07-31T06:50:05;100908.75;;;25.13;55.63
44349;BME280;30068;50.986;4.564;2023-07-31T06:52:31;100902.00;;;25.16;55.93
44349;BME280;30068;50.986;4.564;2023-07-31T06:57:40;100898.22;;;25.17;55.53
44349;BME280;30068;50.986;4.564;2023-07-31T07:00:05;100897.16;;;25.18;55.48
44349;BME280;30068;50.986;4.564;2023-07-31T07:02:31;100894.41;;;25.18;55.65
44349;BME280;30068;50.986;4.564;2023-07-31T07:04:56;100888.94;;;25.18;55.61
44349;BME280;30068;50.986;4.564;2023-07-31T07:07:21;100884.31;;;25.18;55.52
44349;BME280;30068;50.986;4.564;2023-07-31T07:09:46;100874.25;;;25.19;55.95
44349;BME280;30068;50.986;4.564;2023-07-31T07:12:11;100885.16;;;25.19;55.47
44349;BME280;30068;50.986;4.564;2023-07-31T07:14:37;100887.91;;;25.19;55.56
44349;BME280;30068;50.986;4.564;2023-07-31T07:17:02;100883.28;;;25.19;55.79
44349;BME280;30068;50.986;4.564;2023-07-31T07:19:27;100893.16;;;25.21;55.42
44349;BME280;30068;50.986;4.564;2023-07-31T07:21:52;100888.53;;;25.21;55.63
44349;BME280;30068;50.986;4.564;2023-07-31T07:24:18;100885.16;;;25.19;55.48
44349;BME280;30068;50.986;4.564;2023-07-31T07:26:43;100875.91;;;25.20;55.43
44349;BME280;30068;50.986;4.564;2023-07-31T07:29:08;100893.16;;;25.21;55.54
44349;BME280;30068;50.986;4.564;2023-07-31T07:31:35;100884.31;;;25.18;55.70
44349;BME280;30068;50.986;4.564;2023-07-31T07:34:01;100890.63;;;25.19;55.45
44349;BME280;30068;50.986;4.564;2023-07-31T07:36:27;100894.41;;;25.18;55.94
44349;BME280;30068;50.986;4.564;2023-07-31T07:38:53;100888.94;;;25.18;55.42
44349;BME280;30068;50.986;4.564;2023-07-31T07:41:18;100894.41;;;25.18;55.79
44349;BME280;30068;50.986;4.564;2023-07-31T07:43:43;100883.50;;;25.18;55.81
44349;BME280;30068;50.986;4.564;2023-07-31T07:46:08;100886.47;;;25.16;55.88
44349;BME280;30068;50.986;4.564;2023-07-31T07:48:33;100888.16;;;25.17;55.37
44349;BME280;30068;50.986;4.564;2023-07-31T07:50:59;100891.69;;;25.18;55.45
44349;BME280;30068;50.986;4.564;2023-07-31T07:53:26;100896.34;;;25.17;55.44
44349;BME280;30068;50.986;4.564;2023-07-31T07:55:51;100888.94;;;25.18;55.60
44349;BME280;30068;50.986;4.564;2023-07-31T07:58:16;100884.56;;;25.17;55.65
44349;BME280;30068;50.986;4.564;2023-07-31T08:00:41;100882.91;;;25.16;55.21
44349;BME280;30068;50.986;4.564;2023-07-31T08:03:07;100885.41;;;25.17;55.25
44349;BME280;30068;50.986;4.564;2023-07-31T08:05:32;100891.94;;;25.16;55.74
44349;BME280;30068;50.986;4.564;2023-07-31T08:07:59;100888.94;;;25.18;55.43
44349;BME280;30068;50.986;4.564;2023-07-31T08:10:24;100891.94;;;25.16;55.38
44349;BME280;30068;50.986;4.564;2023-07-31T08:12:49;100884.78;;;25.15;55.70
44349;BME280;30068;50.986;4.564;2023-07-31T08:15:15;100886.47;;;25.16;55.53
44349;BME280;30068;50.986;4.564;2023-07-31T08:17:40;100888.34;;;25.16;55.44
44349;BME280;30068;50.986;4.564;2023-07-31T08:20:05;100887.53;;;25.15;55.59
44349;BME280;30068;50.986;4.564;2023-07-31T08:22:31;100881.22;;;25.15;55.45
44349;BME280;30068;50.986;4.564;2023-07-31T08:24:56;100890.25;;;25.15;55.79
44349;BME280;30068;50.986;4.564;2023-07-31T08:27:21;100885.63;;;25.16;55.57
44349;BME280;30068;50.986;4.564;2023-07-31T08:29:46;100891.09;;;25.16;55.36
44349;BME280;30068;50.986;4.564;2023-07-31T08:32:12;100891.09;;;25.16;55.33
44349;BME280;30068;50.986;4.564;2023-07-31T08:34:37;100885.63;;;25.16;55.27
44349;BME280;30068;50.986;4.564;2023-07-31T08:37:02;100892.13;;;25.15;55.11
44349;BME280;30068;50.986;4.564;2023-07-31T08:39:28;100900.34;;;25.15;55.64
44349;BME280;30068;50.986;4.564;2023-07-31T08:41:57;100897.38;;;25.16;55.68
44349;BME280;30068;50.986;4.564;2023-07-31T08:44:22;100890.47;;;25.14;55.50
44349;BME280;30068;50.986;4.564;2023-07-31T08:46:49;100892.34;;;25.13;55.72
44349;BME280;30068;50.986;4.564;2023-07-31T08:49:15;100879.53;;;25.14;55.47
44349;BME280;30068;50.986;4.564;2023-07-31T08:51:41;100880.59;;;25.13;55.24
44349;BME280;30068;50.986;4.564;2023-07-31T08:54:07;100884.38;;;25.12;55.01
44349;BME280;30068;50.986;4.564;2023-07-31T08:56:32;100880.59;;;25.13;55.66
44349;BME280;30068;50.986;4.564;2023-07-31T08:58:59;100883.31;;;25.13;55.41
44349;BME280;30068;50.986;4.564;2023-07-31T09:01:27;100881.63;;;25.12;55.48
44349;BME280;30068;50.986;4.564;2023-07-31T09:03:54;100876.19;;;25.12;55.19
44349;BME280;30068;50.986;4.564;2023-07-31T09:06:20;100884.38;;;25.12;55.46
44349;BME280;30068;50.986;4.564;2023-07-31T09:08:45;100885.22;;;25.12;55.58
44349;BME280;30068;50.986;4.564;2023-07-31T09:11:11;100881.63;;;25.12;55.62
44349;BME280;30068;50.986;4.564;2023-07-31T09:13:37;100884.38;;;25.12;55.15
44349;BME280;30068;50.986;4.564;2023-07-31T09:16:05;100881.88;;;25.10;55.35
44349;BME280;30068;50.986;4.564;2023-07-31T09:18:30;100871.81;;;25.11;55.44
44349;BME280;30068;50.986;4.564;2023-07-31T09:21:05;100872.84;;;25.10;55.53
44349;BME280;30068;50.986;4.564;2023-07-31T09:23:43;100877.25;;;25.11;55.72
44349;BME280;30068;50.986;4.564;2023-07-31T09:26:09;100872.75;;;24.92;54.97
44349;BME280;30068;50.986;4.564;2023-07-31T09:28:34;100869.41;;;24.90;55.53
44349;BME280;30068;50.986;4.564;2023-07-31T09:30:59;100869.16;;;24.91;55.72
44349;BME280;30068;50.986;4.564;2023-07-31T09:33:24;100869.41;;;24.90;55.74
44349;BME280;30068;50.986;4.564;2023-07-31T09:35:50;100859.09;;;24.92;55.51
44349;BME280;30068;50.986;4.564;2023-07-31T09:38:15;100863.50;;;24.93;55.74
44349;BME280;30068;50.986;4.564;2023-07-31T09:40:41;100861.59;;;24.93;55.15
44349;BME280;30068;50.986;4.564;2023-07-31T09:43:08;100855.94;;;24.95;55.64
44349;BME280;30068;50.986;4.564;2023-07-31T09:45:35;100845.84;;;24.95;55.40
44349;BME280;30068;50.986;4.564;2023-07-31T09:48:06;100853.84;;;24.97;55.36
44349;BME280;30068;50.986;4.564;2023-07-31T09:50:32;100847.28;;;24.98;55.37
44349;BME280;30068;50.986;4.564;2023-07-31T09:52:57;100848.97;;;24.99;55.74
44349;BME280;30068;50.986;4.564;2023-07-31T09:55:23;100846.22;;;24.99;55.36
44349;BME280;30068;50.986;4.564;2023-07-31T09:57:49;100852.53;;;24.99;55.39
44349;BME280;30068;50.986;4.564;2023-07-31T10:00:18;100851.25;;;25.02;55.40
44349;BME280;30068;50.986;4.564;2023-07-31T10:02:44;100852.09;;;25.02;55.55
44349;BME280;30068;50.986;4.564;2023-07-31T10:05:10;100851.25;;;25.02;55.31
44349;BME280;30068;50.986;4.564;2023-07-31T10:07:37;100847.47;;;25.03;55.49
44349;BME280;30068;50.986;4.564;2023-07-31T10:10:04;100847.47;;;25.03;55.77
44349;BME280;30068;50.986;4.564;2023-07-31T10:12:31;100849.38;;;25.02;55.34
44349;BME280;30068;50.986;4.564;2023-07-31T10:14:57;100852.09;;;25.02;55.61
44349;BME280;30068;50.986;4.564;2023-07-31T10:17:24;100851.06;;;25.03;55.28
44349;BME280;30068;50.986;4.564;2023-07-31T10:19:50;100853.53;;;25.05;55.38
44349;BME280;30068;50.986;4.564;2023-07-31T10:22:16;100839.88;;;25.05;55.76
44349;BME280;30068;50.986;4.564;2023-07-31T10:24:44;100835.50;;;25.04;55.37
44349;BME280;30068;50.986;4.564;2023-07-31T10:27:10;100831.09;;;25.03;55.84
44349;BME280;30068;50.986;4.564;2023-07-31T10:29:36;100839.03;;;25.04;55.70
44349;BME280;30068;50.986;4.564;2023-07-31T10:32:02;100834.44;;;25.05;55.28
44349;BME280;30068;50.986;4.564;2023-07-31T10:34:28;100838.25;;;25.04;55.52
44349;BME280;30068;50.986;4.564;2023-07-31T10:39:43;100846.44;;;25.04;55.50
44349;BME280;30068;50.986;4.564;2023-07-31T10:42:12;100849.97;;;25.04;55.88
44349;BME280;30068;50.986;4.564;2023-07-31T10:44:38;100851.66;;;25.05;55.71
44349;BME280;30068;50.986;4.564;2023-07-31T10:47:04;100849.75;;;25.06;55.70
44349;BME280;30068;50.986;4.564;2023-07-31T10:49:29;100851.44;;;25.07;55.97
44349;BME280;30068;50.986;4.564;2023-07-31T10:51:56;100846.44;;;25.04;55.73
44349;BME280;30068;50.986;4.564;2023-07-31T10:54:22;100843.25;;;25.07;55.90
44349;BME280;30068;50.986;4.564;2023-07-31T10:56:49;100841.34;;;25.07;55.73
44349;BME280;30068;50.986;4.564;2023-07-31T10:59:15;100840.34;;;25.02;56.59
44349;BME280;30068;50.986;4.564;2023-07-31T11:01:55;100826.53;;;24.97;56.23
44349;BME280;30068;50.986;4.564;2023-07-31T11:04:27;100826.53;;;24.97;56.26
44349;BME280;30068;50.986;4.564;2023-07-31T11:06:59;100816.44;;;24.97;56.68
44349;BME280;30068;50.986;4.564;2023-07-31T11:09:27;100804.69;;;24.97;56.62
44349;BME280;30068;50.986;4.564;2023-07-31T11:11:53;100804.69;;;24.97;56.70
44349;BME280;30068;50.986;4.564;2023-07-31T11:14:19;100813.47;;;24.99;56.59
44349;BME280;30068;50.986;4.564;2023-07-31T11:16:44;100809.47;;;25.01;56.16
44349;BME280;30068;50.986;4.564;2023-07-31T11:19:09;100808.63;;;25.01;56.17
44349;BME280;30068;50.986;4.564;2023-07-31T11:21:34;100805.06;;;25.00;56.58
44349;BME280;30068;50.986;4.564;2023-07-31T11:23:59;100789.53;;;25.01;56.22
44349;BME280;30068;50.986;4.564;2023-07-31T11:26:25;100802.13;;;25.02;56.57
44349;BME280;30068;50.986;4.564;2023-07-31T11:28:50;100793.94;;;25.02;56.35
44349;BME280;30068;50.986;4.564;2023-07-31T11:31:15;100788.91;;;24.99;55.98
44349;BME280;30068;50.986;4.564;2023-07-31T11:33:41;100796.66;;;25.02;56.17
44349;BME280;30068;50.986;4.564;2023-07-31T11:36:09;100775.66;;;25.02;56.19
44349;BME280;30068;50.986;4.564;2023-07-31T11:38:39;100778.38;;;25.02;56.50
44349;BME280;30068;50.986;4.564;2023-07-31T11:41:04;100778.16;;;25.04;56.35
44349;BME280;30068;50.986;4.564;2023-07-31T11:43:30;100763.69;;;25.03;56.31
44349;BME280;30068;50.986;4.564;2023-07-31T11:45:56;100778.16;;;25.04;56.16
44349;BME280;30068;50.986;4.564;2023-07-31T11:50:47;100782.78;;;25.03;55.89
44349;BME280;30068;50.986;4.564;2023-07-31T11:53:14;100777.31;;;25.03;56.45
44349;BME280;30068;50.986;4.564;2023-07-31T11:55:40;100786.34;;;25.04;56.50
44349;BME280;30068;50.986;4.564;2023-07-31T11:58:06;100786.34;;;25.04;56.44
44349;BME280;30068;50.986;4.564;2023-07-31T12:00:31;100783.63;;;25.04;56.11
44349;BME280;30068;50.986;4.564;2023-07-31T12:02:57;100773.50;;;25.04;56.29
44349;BME280;30068;50.986;4.564;2023-07-31T12:05:22;100771.63;;;25.05;56.27
44349;BME280;30068;50.986;4.564;2023-07-31T12:07:54;100752.50;;;25.05;56.04
44349;BME280;30068;50.986;4.564;2023-07-31T12:12:55;100726.72;;;25.01;55.87
44349;BME280;30068;50.986;4.564;2023-07-31T12:15:20;100730.66;;;25.05;56.20
44349;BME280;30068;50.986;4.564;2023-07-31T12:17:47;100719.75;;;25.05;56.09
44349;BME280;30068;50.986;4.564;2023-07-31T12:20:12;100725.19;;;25.05;55.84
44349;BME280;30068;50.986;4.564;2023-07-31T12:22:37;100715.94;;;25.06;56.14
44349;BME280;30068;50.986;4.564;2023-07-31T12:25:03;100722.25;;;25.06;55.80
44349;BME280;30068;50.986;4.564;2023-07-31T12:27:32;100718.69;;;25.06;56.14
44349;BME280;30068;50.986;4.564;2023-07-31T12:29:57;100720.34;;;25.07;55.76
44349;BME280;30068;50.986;4.564;2023-07-31T12:32:23;100721.41;;;25.06;55.74
44349;BME280;30068;50.986;4.564;2023-07-31T12:34:53;100720.56;;;25.05;55.86
44349;BME280;30068;50.986;4.564;2023-07-31T12:37:20;100724.38;;;25.04;56.29
44349;BME280;30068;50.986;4.564;2023-07-31T12:39:45;100708.59;;;25.06;56.41
44349;BME280;30068;50.986;4.564;2023-07-31T12:42:10;100697.91;;;25.05;55.94
44349;BME280;30068;50.986;4.564;2023-07-31T12:44:35;100708.81;;;25.05;55.90
44349;BME280;30068;50.986;4.564;2023-07-31T12:47:03;100714.28;;;25.05;55.68
44349;BME280;30068;50.986;4.564;2023-07-31T12:49:29;100709.91;;;25.04;55.95
44349;BME280;30068;50.986;4.564;2023-07-31T12:51:54;100698.97;;;25.04;55.85
44349;BME280;30068;50.986;4.564;2023-07-31T12:54:19;100708.22;;;25.03;56.32
44349;BME280;30068;50.986;4.564;2023-07-31T12:56:44;100706.56;;;25.02;55.81
44349;BME280;30068;50.986;4.564;2023-07-31T12:59:10;100698.56;;;25.00;55.74